createdAt,value
2022-11-30T00:01:51.126Z,19.50
2022-11-30T00:04:20.369Z,18.53
2022-11-30T00:06:48.275Z,19.03
2022-11-30T00:09:16.224Z,19.17
2022-11-30T00:11:44.139Z,18.87
2022-11-30T00:14:12.016Z,19.33
2022-11-30T00:16:41.258Z,18.60
2022-11-30T00:19:09.170Z,20.37
2022-11-30T00:21:38.456Z,19.17
2022-11-30T00:24:07.277Z,19.33
2022-11-30T00:26:35.241Z,19.60
2022-11-30T00:29:03.234Z,19.50
2022-11-30T00:31:32.248Z,19.73
2022-11-30T00:34:00.329Z,21.03
2022-11-30T00:36:28.241Z,22.43
2022-11-30T00:38:57.641Z,21.27
2022-11-30T00:41:25.525Z,21.87
2022-11-30T00:43:53.417Z,21.00
2022-11-30T00:46:21.353Z,19.87
2022-11-30T00:48:49.937Z,21.50
2022-11-30T00:51:18.498Z,19.40
2022-11-30T00:53:47.603Z,19.57
2022-11-30T00:56:17.012Z,20.13
2022-11-30T00:58:45.004Z,20.63
2022-11-30T01:01:12.919Z,20.53
2022-11-30T01:03:40.998Z,20.23
2022-11-30T01:06:10.799Z,20.10
2022-11-30T01:08:38.721Z,19.60
2022-11-30T01:11:13.886Z,19.23
2022-11-30T01:13:43.339Z,19.77
2022-11-30T01:16:15.568Z,19.70
2022-11-30T01:18:44.272Z,20.67
2022-11-30T01:21:14.523Z,20.07
2022-11-30T01:23:42.847Z,19.87
2022-11-30T01:26:11.446Z,19.83
2022-11-30T01:28:40.810Z,19.13
2022-11-30T01:31:11.892Z,21.13
2022-11-30T01:33:40.020Z,18.13
2022-11-30T01:36:11.632Z,19.13
2022-11-30T01:38:41.223Z,18.97
2022-11-30T01:41:11.265Z,18.70
2022-11-30T01:43:41.805Z,19.00
2022-11-30T01:46:22.455Z,18.37
2022-11-30T01:48:56.277Z,18.67
2022-11-30T01:51:24.357Z,19.57
2022-11-30T01:53:52.784Z,20.27
2022-11-30T01:56:20.791Z,19.43
2022-11-30T01:58:49.035Z,19.80
2022-11-30T02:01:16.990Z,19.00
2022-11-30T02:03:53.988Z,17.73
2022-11-30T02:06:23.440Z,17.50
2022-11-30T02:08:51.815Z,17.57
2022-11-30T02:11:19.855Z,15.77
2022-11-30T02:14:00.993Z,16.50
2022-11-30T02:16:36.541Z,16.57
2022-11-30T02:19:28.972Z,17.40
2022-11-30T02:22:07.832Z,16.63
2022-11-30T02:24:57.776Z,17.00
2022-11-30T02:27:39.714Z,16.47
2022-11-30T02:30:12.446Z,17.17
2022-11-30T02:32:46.589Z,15.60
2022-11-30T02:35:17.241Z,16.10
2022-11-30T02:37:46.845Z,15.10
2022-11-30T02:40:19.366Z,16.00
2022-11-30T02:42:48.183Z,16.30
2022-11-30T02:45:17.920Z,16.60
2022-11-30T02:47:52.287Z,16.50
2022-11-30T02:50:23.818Z,15.13
2022-11-30T02:52:52.222Z,15.77
2022-11-30T02:55:21.529Z,16.03
2022-11-30T02:57:49.486Z,16.23
2022-11-30T03:00:20.020Z,14.90
2022-11-30T03:02:47.961Z,16.17
2022-11-30T03:05:15.983Z,15.47
2022-11-30T03:07:43.908Z,15.23
2022-11-30T03:10:12.253Z,14.77
2022-11-30T03:12:40.157Z,14.37
2022-11-30T03:15:08.717Z,14.10
2022-11-30T03:17:37.967Z,15.20
2022-11-30T03:20:07.373Z,14.70
2022-11-30T03:22:35.375Z,14.80
2022-11-30T03:25:03.307Z,14.40
2022-11-30T03:27:31.204Z,14.80
2022-11-30T03:29:59.122Z,14.50
2022-11-30T03:32:27.110Z,15.10
2022-11-30T03:34:57.129Z,14.63
2022-11-30T03:37:25.043Z,14.30
2022-11-30T03:39:57.972Z,14.63
2022-11-30T03:42:26.414Z,14.70
2022-11-30T03:44:54.319Z,15.13
2022-11-30T03:47:22.331Z,15.63
2022-11-30T03:49:50.362Z,15.80
2022-11-30T03:52:19.706Z,16.07
2022-11-30T03:54:47.670Z,15.60
2022-11-30T03:57:15.746Z,14.93
2022-11-30T03:59:43.636Z,15.57
2022-11-30T04:02:11.625Z,14.83
2022-11-30T04:04:39.838Z,14.33
2022-11-30T04:07:07.777Z,15.07
2022-11-30T04:09:37.004Z,14.77
2022-11-30T04:12:05.186Z,13.80
2022-11-30T04:14:33.071Z,13.90
2022-11-30T04:17:00.982Z,13.27
2022-11-30T04:19:28.877Z,14.13
2022-11-30T04:21:56.779Z,13.43
2022-11-30T04:24:24.796Z,13.10
2022-11-30T04:26:54.022Z,13.30
2022-11-30T04:29:21.909Z,12.80
2022-11-30T04:31:49.829Z,13.20
2022-11-30T04:34:17.677Z,13.70
2022-11-30T04:36:45.544Z,13.37
2022-11-30T04:39:13.493Z,12.73
2022-11-30T04:41:41.406Z,12.77
2022-11-30T04:44:10.977Z,12.50
2022-11-30T04:46:57.433Z,12.10
2022-11-30T04:49:25.574Z,12.00
2022-11-30T04:51:53.522Z,12.33
2022-11-30T04:54:21.390Z,11.97
2022-11-30T04:56:49.253Z,13.47
2022-11-30T04:59:18.572Z,12.37
2022-11-30T05:01:46.543Z,12.70
2022-11-30T05:04:14.695Z,12.57
2022-11-30T05:06:42.620Z,12.60
2022-11-30T05:09:10.512Z,12.40
2022-11-30T05:11:38.666Z,11.77
2022-11-30T05:14:07.694Z,10.10
2022-11-30T05:16:36.955Z,9.60
2022-11-30T05:19:05.006Z,10.17
2022-11-30T05:21:32.924Z,9.97
2022-11-30T05:24:00.928Z,10.30
2022-11-30T05:26:28.823Z,9.40
2022-11-30T05:28:56.784Z,9.80
2022-11-30T05:31:24.759Z,9.93
2022-11-30T05:33:54.693Z,9.37
2022-11-30T05:36:23.088Z,10.20
2022-11-30T05:38:51.098Z,9.50
2022-11-30T05:41:19.366Z,10.03
2022-11-30T05:43:47.248Z,9.30
2022-11-30T05:46:15.188Z,9.73
2022-11-30T05:48:43.128Z,10.50
2022-11-30T05:51:15.323Z,10.07
2022-11-30T05:53:43.796Z,9.87
2022-11-30T05:56:13.531Z,9.67
2022-11-30T05:58:41.894Z,10.13
2022-11-30T06:01:17.791Z,10.40
2022-11-30T06:03:45.717Z,10.10
2022-11-30T06:06:15.023Z,9.23
2022-11-30T06:08:43.422Z,10.17
2022-11-30T06:11:11.983Z,9.60
2022-11-30T06:13:40.900Z,10.00
2022-11-30T06:16:09.957Z,10.37
2022-11-30T06:18:38.606Z,9.97
2022-11-30T06:21:08.955Z,10.30
2022-11-30T06:23:38.742Z,9.57
2022-11-30T06:26:07.992Z,10.13
2022-11-30T06:28:36.714Z,10.00
2022-11-30T06:31:07.350Z,10.20
2022-11-30T06:33:37.085Z,10.30
2022-11-30T06:36:05.919Z,10.50
2022-11-30T06:38:33.860Z,10.13
2022-11-30T06:41:08.071Z,10.53
2022-11-30T06:43:36.915Z,10.23
2022-11-30T06:46:05.452Z,11.43
2022-11-30T06:48:33.708Z,12.53
2022-11-30T06:51:02.660Z,14.43
2022-11-30T06:53:30.548Z,13.17
2022-11-30T06:55:58.454Z,12.40
2022-11-30T06:58:27.944Z,12.87
2022-11-30T07:00:55.881Z,10.90
2022-11-30T07:03:23.819Z,11.37
2022-11-30T07:05:51.774Z,12.87
2022-11-30T07:08:19.719Z,12.90
2022-11-30T07:10:48.497Z,11.77
2022-11-30T07:13:17.992Z,9.97
2022-11-30T07:15:47.384Z,9.20
2022-11-30T07:18:15.246Z,8.63
2022-11-30T07:20:43.545Z,9.47
2022-11-30T07:23:29.065Z,9.40
2022-11-30T07:26:07.357Z,8.93
2022-11-30T07:28:36.500Z,9.37
2022-11-30T07:31:16.616Z,9.13
2022-11-30T07:33:45.339Z,9.53
2022-11-30T07:36:13.669Z,9.23
2022-11-30T07:38:41.772Z,9.30
2022-11-30T07:41:09.922Z,10.03
2022-11-30T07:43:37.860Z,10.30
2022-11-30T07:46:07.764Z,10.60
2022-11-30T07:48:35.786Z,10.87
2022-11-30T07:51:05.078Z,11.57
2022-11-30T07:53:33.330Z,11.13
2022-11-30T07:56:05.857Z,12.30
2022-11-30T07:58:34.204Z,12.23
2022-11-30T08:01:03.828Z,12.60
2022-11-30T08:03:37.143Z,11.97
2022-11-30T08:06:07.204Z,11.50
2022-11-30T08:08:36.899Z,12.23
2022-11-30T08:11:06.066Z,12.17
2022-11-30T08:13:34.660Z,11.67
2022-11-30T08:16:03.632Z,12.33
2022-11-30T08:18:33.403Z,12.03
2022-11-30T08:21:02.866Z,11.23
2022-11-30T08:23:31.416Z,11.87
2022-11-30T08:26:03.710Z,12.30
2022-11-30T08:28:31.626Z,12.13
2022-11-30T08:31:01.081Z,11.77
2022-11-30T08:33:30.886Z,11.37
2022-11-30T08:36:08.911Z,11.90
2022-11-30T08:38:38.666Z,12.13
2022-11-30T08:41:07.330Z,12.30
2022-11-30T08:43:35.485Z,12.43
2022-11-30T08:46:16.143Z,12.20
2022-11-30T08:49:02.412Z,12.07
2022-11-30T08:54:29.999Z,12.07
2022-11-30T08:56:59.087Z,12.20
2022-11-30T08:59:27.147Z,12.10
2022-11-30T09:01:55.036Z,13.13
2022-11-30T09:04:23.175Z,13.27
2022-11-30T09:06:52.506Z,12.53
2022-11-30T09:09:20.470Z,12.37
2022-11-30T09:11:48.416Z,12.43
2022-11-30T09:14:16.337Z,13.07
2022-11-30T09:16:44.333Z,16.00
2022-11-30T09:19:12.275Z,13.17
2022-11-30T09:21:40.443Z,13.37
2022-11-30T09:24:10.025Z,12.30
2022-11-30T09:26:38.272Z,11.77
2022-11-30T09:29:06.232Z,12.73
2022-11-30T09:31:34.466Z,13.20
2022-11-30T09:34:02.592Z,11.90
2022-11-30T09:36:30.967Z,11.87
2022-11-30T09:38:58.954Z,11.97
2022-11-30T09:42:08.151Z,12.03
2022-11-30T09:44:44.959Z,12.60
2022-11-30T09:47:31.912Z,13.00
2022-11-30T09:50:05.929Z,13.40
2022-11-30T09:52:37.036Z,14.67
2022-11-30T09:55:09.952Z,15.37
2022-11-30T09:57:46.885Z,14.30
2022-11-30T10:00:17.410Z,18.20
2022-11-30T10:02:48.675Z,19.33
2022-11-30T10:05:19.258Z,14.10
2022-11-30T10:08:03.068Z,13.13
2022-11-30T10:10:39.160Z,14.60
2022-11-30T10:13:24.315Z,25.60
2022-11-30T10:16:04.173Z,21.07
2022-11-30T10:18:41.780Z,13.80
2022-11-30T10:21:19.993Z,12.67
2022-11-30T10:24:05.457Z,13.83
2022-11-30T10:26:35.604Z,14.20
2022-11-30T10:29:14.442Z,14.43
2022-11-30T10:31:44.236Z,13.77
2022-11-30T10:34:21.089Z,14.83
2022-11-30T10:36:54.671Z,14.40
2022-11-30T10:39:27.301Z,12.73
2022-11-30T10:42:00.638Z,14.23
2022-11-30T10:44:34.562Z,14.77
2022-11-30T10:47:06.309Z,14.83
2022-11-30T10:50:00.027Z,13.40
2022-11-30T10:52:36.580Z,13.83
2022-11-30T10:55:13.589Z,13.60
2022-11-30T10:57:42.371Z,13.57
2022-11-30T11:00:16.326Z,13.23
2022-11-30T11:02:46.662Z,13.57
2022-11-30T11:05:20.710Z,12.93
2022-11-30T11:07:55.179Z,13.10
2022-11-30T11:10:28.501Z,12.30
2022-11-30T11:12:57.413Z,12.17
2022-11-30T11:15:28.640Z,12.77
2022-11-30T11:18:23.791Z,12.17
2022-11-30T11:21:05.839Z,13.40
2022-11-30T11:23:37.924Z,13.00
2022-11-30T11:26:07.229Z,12.27
2022-11-30T11:28:37.594Z,12.40
2022-11-30T11:31:32.655Z,12.50
2022-11-30T11:34:00.644Z,12.73
2022-11-30T11:36:30.737Z,12.63
2022-11-30T11:38:59.442Z,13.13
2022-11-30T11:41:30.258Z,11.60
2022-11-30T11:44:03.272Z,12.07
2022-11-30T11:46:33.765Z,12.23
2022-11-30T11:49:03.936Z,12.07
2022-11-30T11:51:34.280Z,12.70
2022-11-30T11:54:07.833Z,10.43
2022-11-30T11:56:37.506Z,10.57
2022-11-30T11:59:16.380Z,10.87
2022-11-30T12:01:53.980Z,12.10
2022-11-30T12:04:45.476Z,11.13
2022-11-30T12:11:22.481Z,12.10
2022-11-30T12:13:51.014Z,11.07
2022-11-30T12:16:31.558Z,11.53
2022-11-30T12:19:12.692Z,11.00
2022-11-30T12:21:52.102Z,11.00
2022-11-30T12:24:44.294Z,11.27
2022-11-30T12:27:21.215Z,11.10
2022-11-30T12:29:58.398Z,11.07
2022-11-30T12:32:41.257Z,10.70
2022-11-30T12:35:27.428Z,11.27
2022-11-30T12:38:10.755Z,11.93
2022-11-30T12:40:59.320Z,11.30
2022-11-30T12:43:37.973Z,10.23
2022-11-30T12:46:13.170Z,10.40
2022-11-30T12:48:48.050Z,12.30
2022-11-30T12:51:29.497Z,12.57
2022-11-30T12:54:05.410Z,12.43
2022-11-30T12:56:45.868Z,12.40
2022-11-30T12:59:27.815Z,12.27
2022-11-30T13:02:13.645Z,11.90
2022-11-30T13:04:46.131Z,10.37
2022-11-30T13:07:24.922Z,10.67
2022-11-30T13:09:57.759Z,10.97
2022-11-30T13:12:35.911Z,9.93
2022-11-30T13:15:11.055Z,10.70
2022-11-30T13:17:44.258Z,13.20
2022-11-30T13:20:22.140Z,12.60
2022-11-30T13:22:56.350Z,11.33
2022-11-30T13:26:06.370Z,13.70
2022-11-30T13:28:32.333Z,12.57
2022-11-30T13:31:06.810Z,11.30
2022-11-30T13:33:49.152Z,12.27
2022-11-30T13:36:40.759Z,10.77
2022-11-30T13:39:37.185Z,10.73
2022-11-30T13:42:44.924Z,10.80
2022-11-30T13:45:38.612Z,9.00
2022-11-30T13:48:33.811Z,10.20
2022-11-30T13:51:08.432Z,14.10
2022-11-30T13:53:38.975Z,9.93
2022-11-30T13:56:33.909Z,10.27
2022-11-30T13:59:34.535Z,14.50
2022-11-30T14:02:42.975Z,10.40
2022-11-30T14:05:25.806Z,9.93
2022-11-30T14:08:18.012Z,9.67
2022-11-30T14:10:47.875Z,10.37
2022-11-30T14:13:31.683Z,10.33
2022-11-30T14:16:02.495Z,11.83
2022-11-30T14:18:48.935Z,10.77
2022-11-30T14:21:22.655Z,12.60
2022-11-30T14:23:57.426Z,11.47
2022-11-30T14:26:31.688Z,11.63
2022-11-30T14:29:05.632Z,10.93
2022-11-30T14:31:38.736Z,11.30
2022-11-30T14:34:11.858Z,11.53
2022-11-30T14:36:44.733Z,10.87
2022-11-30T14:39:32.262Z,12.03
2022-11-30T14:42:02.113Z,10.27
2022-11-30T14:44:35.728Z,10.53
2022-11-30T14:47:14.619Z,10.73
2022-11-30T14:49:47.705Z,10.60
2022-11-30T14:52:21.790Z,11.20
2022-11-30T14:55:02.586Z,11.17
2022-11-30T14:57:38.573Z,10.10
2022-11-30T15:00:17.210Z,10.43
2022-11-30T15:02:46.373Z,11.10
2022-11-30T15:05:17.188Z,11.43
2022-11-30T15:07:46.329Z,11.83
2022-11-30T15:10:18.950Z,11.60
2022-11-30T15:12:54.065Z,10.63
2022-11-30T15:15:27.677Z,11.10
2022-11-30T15:17:57.548Z,10.43
2022-11-30T15:20:32.096Z,11.77
2022-11-30T15:23:01.160Z,11.77
2022-11-30T15:25:35.706Z,11.90
2022-11-30T15:28:04.772Z,10.60
2022-11-30T15:30:39.465Z,10.90
2022-11-30T15:33:07.549Z,10.63
2022-11-30T15:36:04.950Z,9.57
2022-11-30T15:38:27.201Z,13.10
2022-11-30T15:41:03.357Z,10.80
2022-11-30T15:43:41.228Z,10.97
2022-11-30T15:46:30.458Z,11.90
2022-11-30T15:49:16.184Z,11.10
2022-11-30T15:51:47.473Z,16.47
2022-11-30T15:54:15.484Z,22.50
2022-11-30T15:56:57.469Z,29.80
2022-11-30T15:59:27.253Z,21.27
2022-11-30T16:02:08.356Z,19.77
2022-11-30T16:05:08.434Z,18.30
2022-11-30T16:07:49.555Z,14.53
2022-11-30T16:10:21.365Z,17.13
2022-11-30T16:12:51.808Z,15.03
2022-11-30T16:15:23.250Z,13.90
2022-11-30T16:17:54.414Z,15.37
2022-11-30T16:20:22.398Z,14.20
2022-11-30T16:22:50.439Z,12.47
2022-11-30T16:25:19.748Z,13.40
2022-11-30T16:27:48.542Z,12.07
2022-11-30T16:30:18.652Z,12.90
2022-11-30T16:32:47.029Z,14.00
2022-11-30T16:35:21.988Z,17.17
2022-11-30T16:37:49.937Z,14.00
2022-11-30T16:40:18.267Z,13.53
2022-11-30T16:42:46.229Z,14.50
2022-11-30T16:45:18.441Z,14.17
2022-11-30T16:47:46.362Z,12.73
2022-11-30T16:50:14.812Z,12.73
2022-11-30T16:52:44.412Z,13.27
2022-11-30T16:55:16.230Z,15.13
2022-11-30T16:57:44.489Z,14.97
2022-11-30T17:00:31.464Z,17.10
2022-11-30T17:03:02.421Z,14.37
2022-11-30T17:05:30.342Z,14.17
2022-11-30T17:07:59.681Z,13.77
2022-11-30T17:10:28.438Z,13.67
2022-11-30T17:12:56.452Z,13.90
2022-11-30T17:15:25.417Z,13.63
2022-11-30T17:17:57.481Z,12.47
2022-11-30T17:20:26.207Z,11.93
2022-11-30T17:22:54.567Z,13.30
2022-11-30T17:25:25.141Z,11.53
2022-11-30T17:27:53.585Z,12.83
2022-11-30T17:30:23.812Z,11.93
2022-11-30T17:32:51.800Z,11.40
2022-11-30T17:35:20.201Z,11.17
2022-11-30T17:37:48.157Z,10.47
2022-11-30T17:40:16.317Z,10.23
2022-11-30T17:42:45.872Z,10.67
2022-11-30T17:45:13.819Z,10.37
2022-11-30T17:47:41.697Z,11.63
2022-11-30T17:50:10.838Z,10.07
2022-11-30T17:52:39.230Z,11.10
2022-11-30T17:55:08.501Z,9.93
2022-11-30T17:57:38.338Z,10.33
2022-11-30T18:00:09.754Z,10.87
2022-11-30T18:02:37.904Z,10.87
2022-11-30T18:05:06.918Z,11.23
2022-11-30T18:07:34.916Z,11.20
2022-11-30T18:10:03.119Z,11.07
2022-11-30T18:12:31.034Z,11.10
2022-11-30T18:14:59.031Z,10.63
2022-11-30T18:17:28.256Z,11.20
2022-11-30T18:19:56.121Z,9.83
2022-11-30T18:22:24.054Z,10.90
2022-11-30T18:24:51.908Z,10.07
2022-11-30T18:27:19.722Z,11.00
2022-11-30T18:29:47.567Z,11.13
2022-11-30T18:32:15.445Z,9.63
2022-11-30T18:34:48.995Z,10.60
2022-11-30T18:37:17.421Z,10.47
2022-11-30T18:39:45.366Z,11.07
2022-11-30T18:42:13.226Z,11.10
2022-11-30T18:44:41.178Z,10.83
2022-11-30T18:47:09.090Z,11.17
2022-11-30T18:49:37.010Z,10.73
2022-11-30T18:52:06.504Z,11.20
2022-11-30T18:54:34.410Z,10.57
2022-11-30T18:57:02.512Z,10.50
2022-11-30T18:59:30.380Z,10.57
2022-11-30T19:01:58.428Z,10.03
2022-11-30T19:04:27.233Z,10.43
2022-11-30T19:06:55.326Z,10.57
2022-11-30T19:09:24.627Z,10.90
2022-11-30T19:11:52.655Z,11.67
2022-11-30T19:14:20.553Z,10.90
2022-11-30T19:16:48.577Z,13.53
2022-11-30T19:19:16.625Z,11.73
2022-11-30T19:21:47.605Z,11.40
2022-11-30T19:24:16.316Z,11.30
2022-11-30T19:26:45.562Z,11.30
2022-11-30T19:29:16.043Z,10.83
2022-11-30T19:31:43.990Z,11.33
2022-11-30T19:34:13.287Z,11.97
2022-11-30T19:36:41.806Z,10.53
2022-11-30T19:39:11.116Z,12.67
2022-11-30T19:41:39.012Z,14.43
2022-11-30T19:44:08.331Z,15.03
2022-11-30T19:46:36.369Z,19.43
2022-11-30T19:49:05.150Z,16.80
2022-11-30T19:51:33.241Z,22.37
2022-11-30T19:54:01.903Z,11.90
2022-11-30T19:56:32.085Z,12.07
2022-11-30T19:59:05.019Z,12.47
2022-11-30T20:01:36.168Z,11.07
2022-11-30T20:04:04.987Z,11.17
2022-11-30T20:06:36.678Z,11.37
2022-11-30T20:09:05.653Z,12.27
2022-11-30T20:11:33.787Z,13.43
2022-11-30T20:14:01.845Z,12.43
2022-11-30T20:16:30.278Z,10.63
2022-11-30T20:19:01.738Z,11.80
2022-11-30T20:21:31.395Z,11.63
2022-11-30T20:24:01.378Z,11.20
2022-11-30T20:26:30.809Z,10.53
2022-11-30T20:29:00.015Z,10.57
2022-11-30T20:31:29.637Z,11.27
2022-11-30T20:33:59.267Z,10.73
2022-11-30T20:36:27.128Z,10.13
2022-11-30T20:38:55.239Z,10.23
2022-11-30T20:41:25.126Z,10.77
2022-11-30T20:43:53.685Z,9.60
2022-11-30T20:46:23.969Z,10.27
2022-11-30T20:48:52.503Z,10.07
2022-11-30T20:51:32.537Z,9.60
2022-11-30T20:54:02.130Z,9.97
2022-11-30T20:56:30.251Z,9.23
2022-11-30T20:59:02.066Z,9.83
2022-11-30T21:01:30.187Z,10.00
2022-11-30T21:03:59.470Z,9.07
2022-11-30T21:06:29.066Z,11.33
2022-11-30T21:08:57.447Z,10.50
2022-11-30T21:11:25.922Z,9.00
2022-11-30T21:13:53.920Z,9.17
2022-11-30T21:16:27.631Z,9.33
2022-11-30T21:18:56.914Z,8.63
2022-11-30T21:21:26.851Z,8.27
2022-11-30T21:23:57.925Z,9.10
2022-11-30T21:26:27.676Z,11.10
2022-11-30T21:28:59.385Z,12.80
2022-11-30T21:31:27.408Z,11.33
2022-11-30T21:33:55.344Z,9.60
2022-11-30T21:36:23.801Z,8.50
2022-11-30T21:39:02.930Z,10.83
2022-11-30T21:41:33.441Z,8.53
2022-11-30T21:44:01.393Z,7.77
2022-11-30T21:46:29.709Z,8.73
2022-11-30T21:48:57.779Z,9.03
2022-11-30T21:51:27.386Z,8.83
2022-11-30T21:53:58.180Z,9.30
2022-11-30T21:56:27.739Z,9.30
2022-11-30T21:58:55.947Z,9.17
2022-11-30T22:01:27.099Z,8.03
2022-11-30T22:03:55.920Z,8.40
2022-11-30T22:06:26.457Z,8.20
2022-11-30T22:08:56.866Z,8.63
2022-11-30T22:11:24.838Z,9.67
2022-11-30T22:13:53.816Z,8.87
2022-11-30T22:16:22.840Z,9.60
2022-11-30T22:18:53.608Z,9.30
2022-11-30T22:21:23.484Z,9.37
2022-11-30T22:23:54.864Z,9.80
2022-11-30T22:26:25.395Z,9.77
2022-11-30T22:28:55.486Z,10.07
2022-11-30T22:31:25.172Z,10.43
2022-11-30T22:33:54.054Z,9.97
2022-11-30T22:36:24.172Z,9.50
2022-11-30T22:38:56.089Z,10.33
2022-11-30T22:41:25.787Z,11.27
2022-11-30T22:43:53.958Z,10.47
2022-11-30T22:46:24.062Z,10.87
2022-11-30T22:48:52.221Z,10.77
2022-11-30T22:51:22.063Z,11.33
2022-11-30T22:53:50.787Z,11.83
2022-11-30T22:56:20.568Z,10.70
2022-11-30T22:58:53.824Z,10.90
2022-11-30T23:01:23.855Z,10.77
2022-11-30T23:03:53.426Z,11.30
2022-11-30T23:06:22.530Z,11.30
2022-11-30T23:08:52.133Z,11.80
2022-11-30T23:11:22.161Z,11.40
2022-11-30T23:13:51.990Z,11.30
2022-11-30T23:16:21.387Z,11.80
2022-11-30T23:18:51.689Z,11.97
2022-11-30T23:21:22.106Z,12.40
2022-11-30T23:23:50.336Z,11.87
2022-11-30T23:26:20.355Z,13.53
2022-11-30T23:28:51.889Z,13.13
2022-11-30T23:31:32.546Z,13.13
2022-11-30T23:34:05.979Z,14.33
2022-11-30T23:36:34.201Z,14.07
2022-11-30T23:39:04.961Z,13.97
2022-11-30T23:41:33.061Z,12.70
2022-11-30T23:44:02.707Z,14.10
2022-11-30T23:46:30.805Z,14.27
2022-11-30T23:48:58.776Z,14.90
2022-11-30T23:51:27.060Z,14.70
2022-11-30T23:53:55.096Z,14.70
2022-11-30T23:56:24.651Z,15.03
2022-11-30T23:58:53.107Z,14.17
